createdAt,value
2023-01-23T00:03:41.225Z,4.96
2023-01-23T00:08:46.803Z,5.12
2023-01-23T00:13:52.885Z,5.08
2023-01-23T00:18:57.584Z,4.56
2023-01-23T00:24:02.846Z,4.23
2023-01-23T00:29:09.037Z,4.69
2023-01-23T00:34:15.244Z,4.30
2023-01-23T00:39:21.565Z,3.92
2023-01-23T00:44:27.285Z,3.72
2023-01-23T00:49:31.626Z,3.03
2023-01-23T00:54:38.289Z,4.02
2023-01-23T00:59:43.963Z,4.29
2023-01-23T01:04:48.103Z,3.76
2023-01-23T01:09:52.412Z,4.45
2023-01-23T01:14:58.203Z,4.78
2023-01-23T01:20:02.642Z,4.82
2023-01-23T01:25:07.964Z,5.53
2023-01-23T01:30:14.839Z,5.37
2023-01-23T01:35:19.348Z,5.35
2023-01-23T01:40:25.948Z,5.27
2023-01-23T01:46:08.523Z,4.92
2023-01-23T01:51:18.178Z,4.85
2023-01-23T01:56:22.706Z,5.17
2023-01-23T02:01:28.867Z,5.27
2023-01-23T02:06:33.799Z,3.93
2023-01-23T02:11:38.649Z,4.74
2023-01-23T02:16:50.567Z,5.24
2023-01-23T02:22:05.329Z,4.83
2023-01-23T02:27:11.317Z,4.38
2023-01-23T02:32:15.940Z,4.53
2023-01-23T02:37:22.077Z,4.24
2023-01-23T02:42:28.372Z,4.90
2023-01-23T02:47:33.853Z,5.06
2023-01-23T02:52:38.192Z,4.86
2023-01-23T02:57:45.249Z,4.44
2023-01-23T03:02:50.955Z,3.01
2023-01-23T03:07:55.462Z,3.84
2023-01-23T03:13:07.537Z,2.73
2023-01-23T03:18:11.812Z,3.47
2023-01-23T03:23:16.783Z,3.82
2023-01-23T03:28:39.830Z,4.45
2023-01-23T03:33:45.727Z,4.44
2023-01-23T03:39:05.057Z,4.69
2023-01-23T03:44:11.693Z,4.26
2023-01-23T03:49:17.255Z,2.75
2023-01-23T03:54:23.049Z,2.97
2023-01-23T03:59:30.048Z,2.98
2023-01-23T04:04:35.620Z,4.18
2023-01-23T04:09:43.527Z,4.51
2023-01-23T04:14:50.152Z,4.43
2023-01-23T04:19:54.649Z,3.78
2023-01-23T04:24:59.093Z,4.16
2023-01-23T04:30:05.267Z,3.96
2023-01-23T04:35:12.049Z,3.59
2023-01-23T04:40:19.463Z,4.02
2023-01-23T04:45:35.192Z,3.23
2023-01-23T04:50:52.371Z,2.70
2023-01-23T04:55:56.900Z,2.41
2023-01-23T05:01:08.563Z,2.23
2023-01-23T05:06:14.687Z,2.05
2023-01-23T05:11:20.745Z,2.53
2023-01-23T05:16:26.828Z,2.22
2023-01-23T05:22:06.521Z,2.59
2023-01-23T05:27:11.359Z,2.48
2023-01-23T05:32:19.947Z,3.25
2023-01-23T05:37:32.627Z,3.54
2023-01-23T05:42:41.210Z,3.69
2023-01-23T05:48:12.818Z,2.77
2023-01-23T05:53:17.125Z,1.94
2023-01-23T05:58:21.678Z,2.79
2023-01-23T06:03:59.739Z,2.70
2023-01-23T06:09:26.976Z,2.35
2023-01-23T06:14:31.283Z,2.19
2023-01-23T06:19:37.056Z,1.95
2023-01-23T06:24:41.908Z,2.40
2023-01-23T06:29:47.341Z,2.14
2023-01-23T06:34:55.849Z,2.09
2023-01-23T06:40:00.721Z,1.94
2023-01-23T06:45:05.869Z,1.94
2023-01-23T06:50:12.752Z,2.00
2023-01-23T06:55:17.429Z,2.01
2023-01-23T07:00:23.025Z,1.98
2023-01-23T07:05:31.538Z,1.91
2023-01-23T07:10:37.821Z,2.24
2023-01-23T07:15:42.573Z,2.46
2023-01-23T07:20:49.874Z,2.16
2023-01-23T07:26:00.596Z,2.46
2023-01-23T07:31:07.741Z,2.84
2023-01-23T07:36:15.185Z,2.95
2023-01-23T07:41:19.573Z,2.65
2023-01-23T07:46:25.940Z,2.84
2023-01-23T07:51:31.730Z,2.51
2023-01-23T07:56:36.307Z,3.01
2023-01-23T08:01:40.631Z,3.41
2023-01-23T08:06:46.877Z,3.28
2023-01-23T08:11:55.458Z,3.32
2023-01-23T08:17:01.239Z,3.23
2023-01-23T08:22:06.855Z,3.73
2023-01-23T08:27:13.956Z,3.48
2023-01-23T08:32:18.266Z,2.81
2023-01-23T08:37:24.149Z,3.03
2023-01-23T08:42:28.213Z,3.73
2023-01-23T08:47:36.700Z,2.93
2023-01-23T08:52:42.764Z,3.21
2023-01-23T08:57:46.820Z,3.21
2023-01-23T09:02:51.688Z,3.27
2023-01-23T09:08:00.697Z,2.79
2023-01-23T09:13:05.499Z,2.89
2023-01-23T09:18:10.084Z,2.71
2023-01-23T09:23:16.206Z,2.67
2023-01-23T09:28:20.647Z,2.78
2023-01-23T09:33:27.272Z,3.47
2023-01-23T09:38:34.238Z,3.52
2023-01-23T09:43:46.086Z,3.40
2023-01-23T09:48:57.498Z,3.79
2023-01-23T09:54:12.539Z,3.46
2023-01-23T09:59:35.052Z,3.32
2023-01-23T10:04:39.435Z,3.58
2023-01-23T10:10:06.876Z,3.84
2023-01-23T10:15:35.363Z,3.88
2023-01-23T10:20:58.320Z,3.94
2023-01-23T10:26:06.059Z,3.49
2023-01-23T10:31:14.168Z,4.21
2023-01-23T10:36:27.397Z,3.58
2023-01-23T10:41:34.640Z,4.21
2023-01-23T10:46:47.966Z,4.60
2023-01-23T10:51:52.345Z,4.87
2023-01-23T10:57:01.149Z,4.72
2023-01-23T11:02:21.842Z,4.93
2023-01-23T11:07:28.550Z,5.36
2023-01-23T11:12:35.578Z,5.12
2023-01-23T11:17:40.194Z,5.50
2023-01-23T11:22:45.165Z,5.57
2023-01-23T11:28:00.272Z,5.84
2023-01-23T11:33:14.480Z,5.57
2023-01-23T11:38:30.239Z,5.25
2023-01-23T11:43:37.139Z,5.84
2023-01-23T11:48:51.549Z,5.66
2023-01-23T11:54:05.431Z,6.08
2023-01-23T11:59:51.233Z,5.25
2023-01-23T12:05:17.548Z,5.55
2023-01-23T12:10:25.970Z,5.37
2023-01-23T12:15:40.196Z,5.45
2023-01-23T12:20:56.017Z,5.50
2023-01-23T12:26:08.933Z,5.10
2023-01-23T12:31:30.264Z,5.13
2023-01-23T12:37:11.709Z,5.13
2023-01-23T12:42:24.078Z,5.04
2023-01-23T12:47:34.293Z,4.84
2023-01-23T12:52:44.627Z,4.92
2023-01-23T12:57:59.920Z,4.54
2023-01-23T13:03:22.743Z,4.69
2023-01-23T13:08:43.293Z,3.92
2023-01-23T13:13:55.483Z,4.20
2023-01-23T13:19:18.278Z,4.21
2023-01-23T13:25:02.519Z,4.36
2023-01-23T13:30:36.443Z,4.93
2023-01-23T13:35:56.411Z,4.44
2023-01-23T13:41:33.990Z,4.57
2023-01-23T14:25:20.112Z,3.89
2023-01-23T14:30:29.129Z,3.96
2023-01-23T14:35:34.357Z,4.05
2023-01-23T14:40:50.707Z,4.03
2023-01-23T14:46:03.763Z,3.60
2023-01-23T14:51:20.138Z,3.44
2023-01-23T14:56:28.850Z,3.52
2023-01-23T15:01:36.050Z,3.16
2023-01-23T15:06:45.575Z,3.23
2023-01-23T15:11:52.971Z,4.31
2023-01-23T15:17:17.503Z,4.12
2023-01-23T15:22:29.330Z,4.35
2023-01-23T15:27:40.984Z,3.98
2023-01-23T15:32:53.916Z,4.06
2023-01-23T15:38:10.674Z,4.07
2023-01-23T15:43:30.901Z,4.20
2023-01-23T15:48:45.983Z,3.98
2023-01-23T15:54:07.949Z,3.89
2023-01-23T15:59:23.573Z,4.43
2023-01-23T16:04:50.010Z,3.66
2023-01-23T16:10:20.439Z,4.89
2023-01-23T16:15:31.955Z,4.20
2023-01-23T16:20:49.972Z,4.33
2023-01-23T16:25:59.279Z,5.46
2023-01-23T16:31:17.049Z,4.81
2023-01-23T16:36:29.404Z,5.09
2023-01-23T16:47:07.233Z,4.82
2023-01-23T16:52:21.782Z,4.84
2023-01-23T16:57:39.053Z,4.89
2023-01-23T17:02:50.176Z,5.04
2023-01-23T17:08:13.049Z,4.71
2023-01-23T17:13:28.587Z,4.92
2023-01-23T17:18:45.494Z,5.17
2023-01-23T17:23:55.435Z,4.78
2023-01-23T17:29:09.497Z,4.83
2023-01-23T17:34:26.482Z,4.62
2023-01-23T17:39:38.401Z,5.30
2023-01-23T17:45:22.216Z,4.46
2023-01-23T17:50:35.433Z,3.89
2023-01-23T17:55:48.327Z,4.03
2023-01-23T18:00:57.377Z,3.59
2023-01-23T18:06:06.128Z,4.00
2023-01-23T18:11:22.308Z,3.95
2023-01-23T18:16:35.847Z,3.64
2023-01-23T18:21:50.249Z,3.48
2023-01-23T18:27:16.135Z,4.10
2023-01-23T18:33:29.997Z,3.95
2023-01-23T18:39:00.559Z,3.86
2023-01-23T18:44:35.872Z,3.49
2023-01-23T18:49:52.676Z,3.69
2023-01-23T18:55:13.697Z,3.74
2023-01-23T19:01:01.156Z,3.47
2023-01-23T19:06:18.632Z,3.57
2023-01-23T19:11:47.147Z,3.86
2023-01-23T19:17:17.499Z,3.87
2023-01-23T19:22:33.318Z,4.09
2023-01-23T19:27:43.098Z,4.01
2023-01-23T19:32:50.121Z,3.93
2023-01-23T19:37:56.247Z,4.17
2023-01-23T19:43:15.251Z,4.26
2023-01-23T19:48:21.819Z,4.13
2023-01-23T19:53:26.856Z,4.07
2023-01-23T19:58:32.288Z,4.06
2023-01-23T20:03:39.596Z,3.86
2023-01-23T20:08:44.589Z,3.98
2023-01-23T20:13:49.812Z,3.64
2023-01-23T20:18:56.982Z,4.20
2023-01-23T20:24:01.976Z,4.13
2023-01-23T20:29:07.473Z,3.77
2023-01-23T20:34:13.774Z,2.91
2023-01-23T20:39:18.444Z,3.17
2023-01-23T20:44:23.054Z,3.13
2023-01-23T20:49:29.445Z,3.61
2023-01-23T20:54:33.883Z,3.45
2023-01-23T20:59:38.375Z,2.97
2023-01-23T21:04:45.551Z,2.96
2023-01-23T21:09:50.112Z,3.13
2023-01-23T21:14:54.723Z,2.82
2023-01-23T21:20:00.616Z,3.29
2023-01-23T21:25:05.560Z,3.12
2023-01-23T21:30:11.443Z,3.00
2023-01-23T21:35:17.792Z,3.16
2023-01-23T21:40:22.348Z,2.99
2023-01-23T21:45:27.283Z,2.59
2023-01-23T21:50:33.114Z,2.55
2023-01-23T21:55:37.911Z,2.35
2023-01-23T22:00:59.206Z,2.10
2023-01-23T22:06:05.132Z,2.15
2023-01-23T22:11:10.480Z,2.29
2023-01-23T22:16:14.980Z,2.03
2023-01-23T22:21:21.110Z,2.00
2023-01-23T22:26:25.753Z,2.03
2023-01-23T22:31:30.125Z,1.70
2023-01-23T22:36:36.395Z,1.87
2023-01-23T22:41:41.031Z,1.87
2023-01-23T22:46:46.063Z,1.79
2023-01-23T22:51:52.790Z,2.70
2023-01-23T22:56:57.247Z,2.59
2023-01-23T23:02:01.612Z,2.42
2023-01-23T23:07:07.451Z,2.45
2023-01-23T23:12:13.518Z,2.39
2023-01-23T23:17:17.540Z,2.18
2023-01-23T23:22:23.813Z,2.48
2023-01-23T23:27:28.355Z,2.09
2023-01-23T23:32:32.838Z,2.17
2023-01-23T23:37:38.721Z,1.99
2023-01-23T23:42:42.787Z,2.22
2023-01-23T23:47:47.191Z,2.25
2023-01-23T23:52:53.163Z,1.98
2023-01-23T23:57:57.644Z,2.10
